CheckWX is a tool to help pilots better visualize weather data.  It is not intended as a substitute for an official pre-flight weather briefing.

12:46:17 UTC

SASJ TAF
Gobernador Horacio Guzman International Airport
San Salvador de Jujuy, Argentina
TAF SASJ 161100Z 1612/1712 20006KT 1500 DZ BR OVC005 TX12/1518Z TN06/1710Z BECMG 1616/1619 05010KT 9999 SCT003 OVC010 BECMG 1700/1703 18005KT 5000 DZ BR BKN005 OVC008 BECMG 1703/1706 2000 DZ BR OVC003

Jun-16@
12:00 UTC

Jun-16 @ 12:00 UTC

Jun-16@
16:00 UTC

Jun-16 @ 16:00 UTC

TAF SASJ 161100Z 1612/1712 20006KT 1500 DZ BR OVC005 TX12/1518Z TN06/1710Z
Wind
  • 200° at 6 KTS
Conditions
Drizzle, Mist
Cloud Levels
  • Overcast at 500' AGL

Jun-16@
16:00 UTC

Jun-16 @ 16:00 UTC

Jun-17@
00:00 UTC

Jun-17 @ 00:00 UTC

BECMG 1616/1619 05010KT 9999 SCT003 OVC010

Becoming

Becoming Conditions expected by Sun, Jun 16, 2019 @ 19:00 UTC

Wind
  • 050° at 10 KTS
Conditions
Drizzle, Mist
Cloud Levels
  • Scattered at 300' AGL
  • Overcast at 1,000' AGL

Jun-17@
00:00 UTC

Jun-17 @ 00:00 UTC

Jun-17@
03:00 UTC

Jun-17 @ 03:00 UTC

BECMG 1700/1703 18005KT 5000 DZ BR BKN005 OVC008

Becoming

Becoming Conditions expected by Mon, Jun 17, 2019 @ 03:00 UTC

Wind
  • 180° at 5 KTS
Conditions
Drizzle, Mist
Cloud Levels
  • Broken at 500' AGL
  • Overcast at 800' AGL

Jun-17@
03:00 UTC

Jun-17 @ 03:00 UTC

Jun-17@
12:00 UTC

Jun-17 @ 12:00 UTC

BECMG 1703/1706 2000 DZ BR OVC003

Becoming

Becoming Conditions expected by Mon, Jun 17, 2019 @ 06:00 UTC

Wind
  • 180° at 5 KTS
Conditions
Drizzle, Mist
Cloud Levels
  • Overcast at 300' AGL